Time,TemperatureF,DewpointF,PressureIn,WindDirection,WindDirectionDegrees,WindSpeedMPH,WindSpeedGustMPH,Humidity,HourlyPrecipIn,Conditions,Clouds,dailyrainin,SoftwareType,DateUTC
2013-04-03 00:00:00,45.1,21.0,30.13,NNE,22,4.0,12.0,38,0.00,,OVC,0.00,VWS V14.01,2013-04-03 04:00:00,
2013-04-03 01:00:00,44.7,20.0,30.15,NNE,22,5.0,16.0,37,0.00,,OVC,0.00,VWS V14.01,2013-04-03 05:00:00,
2013-04-03 02:00:00,44.1,20.1,30.16,North,0,4.0,11.0,38,0.00,,OVC,0.00,VWS V14.01,2013-04-03 06:00:00,
2013-04-03 03:00:00,43.3,20.0,30.15,North,0,4.0,13.0,39,0.00,,OVC,0.00,VWS V14.01,2013-04-03 07:00:00,
2013-04-03 04:00:00,42.6,19.4,30.15,NNE,22,4.0,14.0,39,0.00,,OVC,0.00,VWS V14.01,2013-04-03 08:00:00,
2013-04-03 05:00:00,41.7,18.6,30.14,North,0,4.0,13.0,39,0.00,,OVC,0.00,VWS V14.01,2013-04-03 09:00:00,
2013-04-03 06:00:00,40.6,18.2,30.17,NNE,22,4.0,12.0,40,0.00,,OVC,0.00,VWS V14.01,2013-04-03 10:00:00,
2013-04-03 07:00:00,40.4,17.4,30.19,North,0,4.0,13.0,39,0.00,,OVC,0.00,VWS V14.01,2013-04-03 11:00:00,
2013-04-03 08:00:00,39.6,17.3,30.23,NNW,338,3.0,10.0,40,0.00,,OVC,0.00,VWS V14.01,2013-04-03 12:00:00,
2013-04-03 09:00:00,40.9,19.0,30.24,NNW,338,2.0,10.0,41,0.00,,OVC,0.00,VWS V14.01,2013-04-03 13:00:00,
2013-04-03 10:00:00,43.2,16.7,30.23,North,0,1.0,9.0,34,0.00,,OVC,0.00,VWS V14.01,2013-04-03 14:00:00,
2013-04-03 11:00:00,45.8,18.4,30.23,West,270,1.0,8.0,33,0.00,,OVC,0.00,VWS V14.01,2013-04-03 15:00:00,
2013-04-03 12:00:00,49.1,20.5,30.25,WNW,292,1.0,8.0,32,0.00,,OVC,0.00,VWS V14.01,2013-04-03 16:00:00,
2013-04-03 13:00:00,51.8,22.1,30.23,SSW,202,1.0,8.0,31,0.00,,OVC,0.00,VWS V14.01,2013-04-03 17:00:00,
2013-04-03 14:00:00,53.8,21.5,30.21,North,0,1.0,7.0,28,0.00,,OVC,0.00,VWS V14.01,2013-04-03 18:00:00,
2013-04-03 15:00:00,54.8,24.0,30.21,WNW,292,1.0,7.0,30,0.00,,OVC,0.00,VWS V14.01,2013-04-03 19:00:00,
2013-04-03 16:00:00,54.7,23.9,30.20,SW,225,1.0,8.0,30,0.00,,OVC,0.00,VWS V14.01,2013-04-03 20:00:00,
2013-04-03 17:00:00,54.7,24.7,30.20,SW,225,0.0,4.0,31,0.00,,OVC,0.00,VWS V14.01,2013-04-03 21:00:00,
2013-04-03 18:00:00,53.2,24.9,30.20,SW,225,0.0,5.0,33,0.00,,OVC,0.00,VWS V14.01,2013-04-03 22:00:00,
2013-04-03 19:00:00,51.8,26.4,30.20,SW,225,0.0,2.0,37,0.00,,OVC,0.00,VWS V14.01,2013-04-03 23:00:00,
2013-04-03 20:00:00,49.2,28.2,30.21,SW,225,0.0,0.0,44,0.00,,OVC,0.00,VWS V14.01,2013-04-04 00:00:00,
2013-04-03 21:00:00,47.5,26.7,30.24,SW,225,0.0,1.0,44,0.00,,OVC,0.00,VWS V14.01,2013-04-04 01:00:00,
2013-04-03 22:00:00,46.9,26.1,30.25,SW,225,0.0,0.0,44,0.00,,OVC,0.00,VWS V14.01,2013-04-04 02:00:00,
2013-04-03 23:00:00,46.8,26.0,30.27,SW,225,0.0,2.0,44,0.00,,OVC,0.00,VWS V14.01,2013-04-04 03:00:00,